VTCC/CNX METAR and TAF weather

Enter ICAO airport designator
Station Type Date Time Source
VTCC METAR 2021/10/22 19:30 UTC NOAA

VTCC 221930Z 23003KT 200V260 9999 -RA BKN032 23/23 Q1014 RETSRA NOSIG


Station Type Date Time Source
VTCC Decoded METAR 2021/10/22 19:30 UTC NOAA

Chiang Mai, Thailand (VTCC) 18-47N 098-59E 314M
Oct 22, 2021 - 03:30 PM EDT / 2021.10.22 1930 UTC
Wind: from the SW (230 degrees) at 3 MPH (3 KT) (direction variable):0
Visibility: greater than 7 mile(s):0
Sky conditions: mostly cloudy
Weather: light rain
Temperature: 73 F (23 C)
Dew Point: 73 F (23 C)
Relative Humidity: 100%
Pressure (altimeter): 29.94 in. Hg (1014 hPa)
ob: VTCC 221930Z 23003KT 200V260 9999 -RA BKN032 23/23 Q1014 RETSRA NOSIG
cycle: 19

Station Type Date Time Source
VTCC TAF 2021/10/22 18:36 UTC NOAA

TAF VTCC 221700Z 2218/2324 22005KT 9999 SCT035
BECMG 2301/2303 16005KT
BECMG 2303/2305 26005KT
TEMPO 2308/2314 18015G30KT 4000 TSRA FEW025CB BKN030
BECMG 2313/2315 20005KT

Example: see airport list